sensor_id;sensor_type;location;lat;lon;timestamp;P1;durP1;ratioP1;P2;durP2;ratioP2
75634;SDS011;64227;48.724;9.104;2023-11-19T00:01:43;2.25;;;1.25;;
75634;SDS011;64227;48.724;9.104;2023-11-19T00:04:09;1.75;;;1.27;;
75634;SDS011;64227;48.724;9.104;2023-11-19T00:06:34;2.78;;;1.20;;
75634;SDS011;64227;48.724;9.104;2023-11-19T00:08:59;1.30;;;1.08;;
75634;SDS011;64227;48.724;9.104;2023-11-19T00:11:25;1.20;;;0.90;;
75634;SDS011;64227;48.724;9.104;2023-11-19T00:13:50;1.58;;;1.10;;
75634;SDS011;64227;48.724;9.104;2023-11-19T00:16:15;1.48;;;1.00;;
75634;SDS011;64227;48.724;9.104;2023-11-19T00:18:41;1.65;;;1.05;;
75634;SDS011;64227;48.724;9.104;2023-11-19T00:21:06;2.10;;;0.93;;
75634;SDS011;64227;48.724;9.104;2023-11-19T00:23:33;1.38;;;0.88;;
75634;SDS011;64227;48.724;9.104;2023-11-19T00:25:58;0.80;;;0.80;;
75634;SDS011;64227;48.724;9.104;2023-11-19T00:28:23;0.98;;;0.63;;
75634;SDS011;64227;48.724;9.104;2023-11-19T00:30:49;3.72;;;1.02;;
75634;SDS011;64227;48.724;9.104;2023-11-19T00:33:14;0.90;;;0.80;;
75634;SDS011;64227;48.724;9.104;2023-11-19T00:35:39;1.58;;;1.10;;
75634;SDS011;64227;48.724;9.104;2023-11-19T00:38:05;1.10;;;0.80;;
75634;SDS011;64227;48.724;9.104;2023-11-19T00:40:30;1.10;;;0.80;;
75634;SDS011;64227;48.724;9.104;2023-11-19T00:42:56;0.85;;;0.70;;
75634;SDS011;64227;48.724;9.104;2023-11-19T00:45:21;0.88;;;0.70;;
75634;SDS011;64227;48.724;9.104;2023-11-19T00:47:46;2.60;;;0.75;;
75634;SDS011;64227;48.724;9.104;2023-11-19T00:50:12;1.27;;;0.80;;
75634;SDS011;64227;48.724;9.104;2023-11-19T00:52:38;1.20;;;0.80;;
75634;SDS011;64227;48.724;9.104;2023-11-19T00:55:04;0.95;;;0.70;;
75634;SDS011;64227;48.724;9.104;2023-11-19T00:57:30;2.05;;;0.90;;
75634;SDS011;64227;48.724;9.104;2023-11-19T00:59:58;1.17;;;0.47;;
75634;SDS011;64227;48.724;9.104;2023-11-19T01:02:24;0.63;;;0.40;;
75634;SDS011;64227;48.724;9.104;2023-11-19T01:04:49;1.52;;;0.77;;
75634;SDS011;64227;48.724;9.104;2023-11-19T01:07:14;0.43;;;0.43;;
75634;SDS011;64227;48.724;9.104;2023-11-19T01:09:43;0.30;;;0.30;;
75634;SDS011;64227;48.724;9.104;2023-11-19T01:12:08;1.48;;;0.43;;
75634;SDS011;64227;48.724;9.104;2023-11-19T01:14:35;0.57;;;0.30;;
75634;SDS011;64227;48.724;9.104;2023-11-19T01:17:00;0.38;;;0.30;;
75634;SDS011;64227;48.724;9.104;2023-11-19T01:19:26;1.15;;;0.57;;
75634;SDS011;64227;48.724;9.104;2023-11-19T01:21:53;0.52;;;0.40;;
75634;SDS011;64227;48.724;9.104;2023-11-19T01:24:18;0.50;;;0.38;;
75634;SDS011;64227;48.724;9.104;2023-11-19T01:26:44;0.30;;;0.30;;
75634;SDS011;64227;48.724;9.104;2023-11-19T01:29:15;0.35;;;0.35;;
75634;SDS011;64227;48.724;9.104;2023-11-19T01:31:41;0.88;;;0.50;;
75634;SDS011;64227;48.724;9.104;2023-11-19T01:34:06;0.30;;;0.30;;
75634;SDS011;64227;48.724;9.104;2023-11-19T01:36:32;0.38;;;0.30;;
75634;SDS011;64227;48.724;9.104;2023-11-19T01:38:57;0.10;;;0.10;;
75634;SDS011;64227;48.724;9.104;2023-11-19T01:41:22;0.50;;;0.30;;
75634;SDS011;64227;48.724;9.104;2023-11-19T01:43:48;0.70;;;0.37;;
75634;SDS011;64227;48.724;9.104;2023-11-19T01:46:13;0.30;;;0.30;;
75634;SDS011;64227;48.724;9.104;2023-11-19T01:48:40;0.10;;;0.10;;
75634;SDS011;64227;48.724;9.104;2023-11-19T01:51:06;0.50;;;0.20;;
75634;SDS011;64227;48.724;9.104;2023-11-19T01:53:32;0.20;;;0.20;;
75634;SDS011;64227;48.724;9.104;2023-11-19T01:55:59;0.30;;;0.20;;
75634;SDS011;64227;48.724;9.104;2023-11-19T01:58:25;0.22;;;0.20;;
75634;SDS011;64227;48.724;9.104;2023-11-19T02:00:50;0.10;;;0.10;;
75634;SDS011;64227;48.724;9.104;2023-11-19T02:03:16;0.10;;;0.10;;
75634;SDS011;64227;48.724;9.104;2023-11-19T02:05:42;0.10;;;0.10;;
75634;SDS011;64227;48.724;9.104;2023-11-19T02:08:07;0.10;;;0.10;;
75634;SDS011;64227;48.724;9.104;2023-11-19T02:10:33;0.40;;;0.20;;
75634;SDS011;64227;48.724;9.104;2023-11-19T02:12:58;0.10;;;0.10;;
75634;SDS011;64227;48.724;9.104;2023-11-19T02:15:24;0.17;;;0.10;;
75634;SDS011;64227;48.724;9.104;2023-11-19T02:17:50;0.08;;;0.08;;
75634;SDS011;64227;48.724;9.104;2023-11-19T02:20:15;0.40;;;0.10;;
75634;SDS011;64227;48.724;9.104;2023-11-19T02:22:41;0.17;;;0.08;;
75634;SDS011;64227;48.724;9.104;2023-11-19T02:25:25;0.10;;;0.10;;
75634;SDS011;64227;48.724;9.104;2023-11-19T02:30:24;4.22;;;0.50;;
75634;SDS011;64227;48.724;9.104;2023-11-19T02:32:54;0.10;;;0.10;;
75634;SDS011;64227;48.724;9.104;2023-11-19T02:35:22;0.32;;;0.13;;
75634;SDS011;64227;48.724;9.104;2023-11-19T02:37:47;0.10;;;0.10;;
75634;SDS011;64227;48.724;9.104;2023-11-19T02:40:13;0.22;;;0.13;;
75634;SDS011;64227;48.724;9.104;2023-11-19T02:42:38;0.15;;;0.10;;
75634;SDS011;64227;48.724;9.104;2023-11-19T02:45:04;0.43;;;0.20;;
75634;SDS011;64227;48.724;9.104;2023-11-19T02:47:31;0.93;;;0.10;;
75634;SDS011;64227;48.724;9.104;2023-11-19T02:49:56;0.88;;;0.00;;
75634;SDS011;64227;48.724;9.104;2023-11-19T02:52:22;0.22;;;0.10;;
75634;SDS011;64227;48.724;9.104;2023-11-19T02:54:47;0.20;;;0.10;;
75634;SDS011;64227;48.724;9.104;2023-11-19T02:57:25;0.38;;;0.20;;
75634;SDS011;64227;48.724;9.104;2023-11-19T02:59:58;0.10;;;0.10;;
75634;SDS011;64227;48.724;9.104;2023-11-19T03:02:24;0.17;;;0.17;;
75634;SDS011;64227;48.724;9.104;2023-11-19T03:05:07;0.10;;;0.10;;
75634;SDS011;64227;48.724;9.104;2023-11-19T03:07:33;0.10;;;0.10;;
75634;SDS011;64227;48.724;9.104;2023-11-19T03:10:08;0.10;;;0.10;;
75634;SDS011;64227;48.724;9.104;2023-11-19T03:12:34;0.05;;;0.05;;
75634;SDS011;64227;48.724;9.104;2023-11-19T03:14:59;0.03;;;0.03;;
75634;SDS011;64227;48.724;9.104;2023-11-19T03:17:24;0.10;;;0.10;;
75634;SDS011;64227;48.724;9.104;2023-11-19T03:19:50;0.98;;;0.10;;
75634;SDS011;64227;48.724;9.104;2023-11-19T03:22:15;0.10;;;0.10;;
75634;SDS011;64227;48.724;9.104;2023-11-19T03:24:40;0.05;;;0.05;;
75634;SDS011;64227;48.724;9.104;2023-11-19T03:27:06;0.30;;;0.20;;
75634;SDS011;64227;48.724;9.104;2023-11-19T03:29:31;0.10;;;0.10;;
75634;SDS011;64227;48.724;9.104;2023-11-19T03:31:57;1.65;;;0.17;;
75634;SDS011;64227;48.724;9.104;2023-11-19T03:34:22;0.03;;;0.03;;
75634;SDS011;64227;48.724;9.104;2023-11-19T03:36:47;2.20;;;0.30;;
75634;SDS011;64227;48.724;9.104;2023-11-19T03:39:14;0.52;;;0.17;;
75634;SDS011;64227;48.724;9.104;2023-11-19T03:41:39;0.73;;;0.10;;
75634;SDS011;64227;48.724;9.104;2023-11-19T03:44:04;0.75;;;0.10;;
75634;SDS011;64227;48.724;9.104;2023-11-19T03:46:30;0.10;;;0.10;;
75634;SDS011;64227;48.724;9.104;2023-11-19T03:48:55;0.63;;;0.20;;
75634;SDS011;64227;48.724;9.104;2023-11-19T03:51:21;0.13;;;0.10;;
75634;SDS011;64227;48.724;9.104;2023-11-19T03:53:46;0.25;;;0.13;;
75634;SDS011;64227;48.724;9.104;2023-11-19T03:56:12;0.10;;;0.10;;
75634;SDS011;64227;48.724;9.104;2023-11-19T03:58:38;0.52;;;0.10;;
75634;SDS011;64227;48.724;9.104;2023-11-19T04:01:06;1.10;;;0.10;;
75634;SDS011;64227;48.724;9.104;2023-11-19T04:03:36;0.08;;;0.08;;
75634;SDS011;64227;48.724;9.104;2023-11-19T04:06:02;0.10;;;0.10;;
75634;SDS011;64227;48.724;9.104;2023-11-19T04:08:27;0.20;;;0.20;;
75634;SDS011;64227;48.724;9.104;2023-11-19T04:10:53;0.00;;;0.00;;
75634;SDS011;64227;48.724;9.104;2023-11-19T04:13:18;0.10;;;0.10;;
75634;SDS011;64227;48.724;9.104;2023-11-19T04:15:44;0.10;;;0.10;;
75634;SDS011;64227;48.724;9.104;2023-11-19T04:18:09;0.17;;;0.10;;
75634;SDS011;64227;48.724;9.104;2023-11-19T04:20:35;0.00;;;0.00;;
75634;SDS011;64227;48.724;9.104;2023-11-19T04:23:01;0.00;;;0.00;;
75634;SDS011;64227;48.724;9.104;2023-11-19T04:25:26;0.40;;;0.40;;
75634;SDS011;64227;48.724;9.104;2023-11-19T04:27:52;0.10;;;0.05;;
75634;SDS011;64227;48.724;9.104;2023-11-19T04:30:17;0.00;;;0.00;;
75634;SDS011;64227;48.724;9.104;2023-11-19T04:32:43;0.30;;;0.08;;
75634;SDS011;64227;48.724;9.104;2023-11-19T04:35:08;0.00;;;0.00;;
75634;SDS011;64227;48.724;9.104;2023-11-19T04:37:34;0.00;;;0.00;;
75634;SDS011;64227;48.724;9.104;2023-11-19T04:40:00;0.20;;;0.20;;
75634;SDS011;64227;48.724;9.104;2023-11-19T04:42:25;0.00;;;0.00;;
75634;SDS011;64227;48.724;9.104;2023-11-19T04:44:51;0.30;;;0.10;;
75634;SDS011;64227;48.724;9.104;2023-11-19T04:47:16;0.10;;;0.10;;
75634;SDS011;64227;48.724;9.104;2023-11-19T04:49:41;0.17;;;0.10;;
75634;SDS011;64227;48.724;9.104;2023-11-19T04:52:08;0.00;;;0.00;;
75634;SDS011;64227;48.724;9.104;2023-11-19T04:54:33;0.17;;;0.10;;
75634;SDS011;64227;48.724;9.104;2023-11-19T04:56:58;0.00;;;0.00;;
75634;SDS011;64227;48.724;9.104;2023-11-19T04:59:24;0.05;;;0.05;;
75634;SDS011;64227;48.724;9.104;2023-11-19T05:01:49;0.10;;;0.10;;
75634;SDS011;64227;48.724;9.104;2023-11-19T05:04:15;0.40;;;0.10;;
75634;SDS011;64227;48.724;9.104;2023-11-19T05:06:41;0.00;;;0.00;;
75634;SDS011;64227;48.724;9.104;2023-11-19T05:09:06;0.00;;;0.00;;
75634;SDS011;64227;48.724;9.104;2023-11-19T05:11:35;0.20;;;0.10;;
75634;SDS011;64227;48.724;9.104;2023-11-19T05:14:04;0.35;;;0.08;;
75634;SDS011;64227;48.724;9.104;2023-11-19T05:16:30;0.10;;;0.10;;
75634;SDS011;64227;48.724;9.104;2023-11-19T05:18:55;0.00;;;0.00;;
75634;SDS011;64227;48.724;9.104;2023-11-19T05:21:21;0.38;;;0.00;;
75634;SDS011;64227;48.724;9.104;2023-11-19T05:23:46;0.25;;;0.10;;
75634;SDS011;64227;48.724;9.104;2023-11-19T05:26:21;0.20;;;0.15;;
75634;SDS011;64227;48.724;9.104;2023-11-19T05:28:47;0.40;;;0.20;;
75634;SDS011;64227;48.724;9.104;2023-11-19T05:31:12;0.10;;;0.10;;
75634;SDS011;64227;48.724;9.104;2023-11-19T05:33:38;0.25;;;0.10;;
75634;SDS011;64227;48.724;9.104;2023-11-19T05:36:04;0.13;;;0.13;;
75634;SDS011;64227;48.724;9.104;2023-11-19T05:38:30;0.10;;;0.10;;
75634;SDS011;64227;48.724;9.104;2023-11-19T05:40:55;0.10;;;0.10;;
75634;SDS011;64227;48.724;9.104;2023-11-19T05:43:21;0.55;;;0.20;;
75634;SDS011;64227;48.724;9.104;2023-11-19T05:45:46;1.20;;;0.25;;
75634;SDS011;64227;48.724;9.104;2023-11-19T05:48:12;0.17;;;0.17;;
75634;SDS011;64227;48.724;9.104;2023-11-19T05:50:37;0.43;;;0.13;;
75634;SDS011;64227;48.724;9.104;2023-11-19T05:53:03;0.10;;;0.10;;
75634;SDS011;64227;48.724;9.104;2023-11-19T05:55:31;0.35;;;0.10;;
75634;SDS011;64227;48.724;9.104;2023-11-19T05:57:59;0.22;;;0.20;;
75634;SDS011;64227;48.724;9.104;2023-11-19T06:00:24;0.17;;;0.10;;
75634;SDS011;64227;48.724;9.104;2023-11-19T06:02:51;0.10;;;0.10;;
75634;SDS011;64227;48.724;9.104;2023-11-19T06:05:16;0.25;;;0.20;;
75634;SDS011;64227;48.724;9.104;2023-11-19T06:07:42;0.90;;;0.20;;
75634;SDS011;64227;48.724;9.104;2023-11-19T06:10:07;0.20;;;0.10;;
75634;SDS011;64227;48.724;9.104;2023-11-19T06:12:34;0.20;;;0.10;;
75634;SDS011;64227;48.724;9.104;2023-11-19T06:15:02;0.00;;;0.00;;
75634;SDS011;64227;48.724;9.104;2023-11-19T06:17:29;0.20;;;0.20;;
75634;SDS011;64227;48.724;9.104;2023-11-19T06:19:55;0.43;;;0.10;;
75634;SDS011;64227;48.724;9.104;2023-11-19T06:22:20;0.00;;;0.00;;
75634;SDS011;64227;48.724;9.104;2023-11-19T06:24:46;0.13;;;0.13;;
75634;SDS011;64227;48.724;9.104;2023-11-19T06:27:11;0.30;;;0.10;;
75634;SDS011;64227;48.724;9.104;2023-11-19T06:29:36;0.75;;;0.13;;
75634;SDS011;64227;48.724;9.104;2023-11-19T06:32:02;0.20;;;0.20;;
75634;SDS011;64227;48.724;9.104;2023-11-19T06:34:27;0.20;;;0.20;;
75634;SDS011;64227;48.724;9.104;2023-11-19T06:36:53;0.20;;;0.20;;
75634;SDS011;64227;48.724;9.104;2023-11-19T06:39:18;0.98;;;0.10;;
75634;SDS011;64227;48.724;9.104;2023-11-19T06:41:44;0.68;;;0.20;;
75634;SDS011;64227;48.724;9.104;2023-11-19T06:44:10;0.63;;;0.15;;
75634;SDS011;64227;48.724;9.104;2023-11-19T06:46:35;0.10;;;0.10;;
75634;SDS011;64227;48.724;9.104;2023-11-19T06:49:01;1.10;;;0.10;;
75634;SDS011;64227;48.724;9.104;2023-11-19T06:51:26;0.10;;;0.10;;
75634;SDS011;64227;48.724;9.104;2023-11-19T06:53:52;0.17;;;0.17;;
75634;SDS011;64227;48.724;9.104;2023-11-19T06:56:21;0.20;;;0.10;;
75634;SDS011;64227;48.724;9.104;2023-11-19T06:58:47;0.20;;;0.20;;
75634;SDS011;64227;48.724;9.104;2023-11-19T07:01:13;0.20;;;0.20;;
75634;SDS011;64227;48.724;9.104;2023-11-19T07:03:40;0.30;;;0.15;;
75634;SDS011;64227;48.724;9.104;2023-11-19T07:06:05;0.10;;;0.10;;
75634;SDS011;64227;48.724;9.104;2023-11-19T07:08:30;0.20;;;0.20;;
75634;SDS011;64227;48.724;9.104;2023-11-19T07:10:56;0.10;;;0.10;;
75634;SDS011;64227;48.724;9.104;2023-11-19T07:13:21;0.20;;;0.20;;
75634;SDS011;64227;48.724;9.104;2023-11-19T07:15:46;0.10;;;0.10;;
75634;SDS011;64227;48.724;9.104;2023-11-19T07:18:12;0.10;;;0.10;;
75634;SDS011;64227;48.724;9.104;2023-11-19T07:20:37;0.22;;;0.13;;
75634;SDS011;64227;48.724;9.104;2023-11-19T07:23:03;0.20;;;0.20;;
75634;SDS011;64227;48.724;9.104;2023-11-19T07:25:28;0.20;;;0.20;;
75634;SDS011;64227;48.724;9.104;2023-11-19T07:27:54;0.22;;;0.20;;
75634;SDS011;64227;48.724;9.104;2023-11-19T07:30:19;0.38;;;0.20;;
75634;SDS011;64227;48.724;9.104;2023-11-19T07:32:44;0.20;;;0.20;;
75634;SDS011;64227;48.724;9.104;2023-11-19T07:35:09;0.70;;;0.20;;
75634;SDS011;64227;48.724;9.104;2023-11-19T07:37:35;1.33;;;0.30;;
75634;SDS011;64227;48.724;9.104;2023-11-19T07:40:00;0.30;;;0.20;;
75634;SDS011;64227;48.724;9.104;2023-11-19T07:42:25;0.20;;;0.20;;
75634;SDS011;64227;48.724;9.104;2023-11-19T07:44:51;2.92;;;0.30;;
75634;SDS011;64227;48.724;9.104;2023-11-19T07:47:16;0.25;;;0.10;;
75634;SDS011;64227;48.724;9.104;2023-11-19T07:49:41;1.10;;;0.10;;
75634;SDS011;64227;48.724;9.104;2023-11-19T07:52:08;0.10;;;0.10;;
75634;SDS011;64227;48.724;9.104;2023-11-19T07:54:34;0.28;;;0.20;;
75634;SDS011;64227;48.724;9.104;2023-11-19T07:56:59;0.35;;;0.10;;
75634;SDS011;64227;48.724;9.104;2023-11-19T07:59:24;0.67;;;0.10;;
75634;SDS011;64227;48.724;9.104;2023-11-19T08:01:50;0.85;;;0.20;;
75634;SDS011;64227;48.724;9.104;2023-11-19T08:04:15;0.20;;;0.20;;
75634;SDS011;64227;48.724;9.104;2023-11-19T08:06:40;1.95;;;0.15;;
75634;SDS011;64227;48.724;9.104;2023-11-19T08:09:06;1.88;;;0.20;;
75634;SDS011;64227;48.724;9.104;2023-11-19T08:11:32;0.20;;;0.20;;
75634;SDS011;64227;48.724;9.104;2023-11-19T08:13:58;0.15;;;0.15;;
75634;SDS011;64227;48.724;9.104;2023-11-19T08:16:23;0.88;;;0.20;;
75634;SDS011;64227;48.724;9.104;2023-11-19T08:18:49;1.45;;;0.10;;
75634;SDS011;64227;48.724;9.104;2023-11-19T08:21:14;0.15;;;0.15;;
75634;SDS011;64227;48.724;9.104;2023-11-19T08:23:39;0.10;;;0.10;;
75634;SDS011;64227;48.724;9.104;2023-11-19T08:26:05;0.40;;;0.28;;
75634;SDS011;64227;48.724;9.104;2023-11-19T08:28:30;0.10;;;0.10;;
75634;SDS011;64227;48.724;9.104;2023-11-19T08:30:56;0.10;;;0.10;;
75634;SDS011;64227;48.724;9.104;2023-11-19T08:33:21;0.32;;;0.10;;
75634;SDS011;64227;48.724;9.104;2023-11-19T08:35:47;0.10;;;0.10;;
75634;SDS011;64227;48.724;9.104;2023-11-19T08:38:13;0.30;;;0.20;;
75634;SDS011;64227;48.724;9.104;2023-11-19T08:40:38;0.68;;;0.20;;
75634;SDS011;64227;48.724;9.104;2023-11-19T08:43:04;0.40;;;0.20;;
75634;SDS011;64227;48.724;9.104;2023-11-19T08:45:29;0.20;;;0.13;;
75634;SDS011;64227;48.724;9.104;2023-11-19T08:47:56;0.40;;;0.10;;
75634;SDS011;64227;48.724;9.104;2023-11-19T08:50:21;0.20;;;0.20;;
75634;SDS011;64227;48.724;9.104;2023-11-19T08:52:47;0.20;;;0.20;;
75634;SDS011;64227;48.724;9.104;2023-11-19T08:55:12;0.20;;;0.20;;
75634;SDS011;64227;48.724;9.104;2023-11-19T08:57:38;0.35;;;0.20;;
75634;SDS011;64227;48.724;9.104;2023-11-19T09:00:04;0.57;;;0.30;;
75634;SDS011;64227;48.724;9.104;2023-11-19T09:04:58;0.30;;;0.25;;
75634;SDS011;64227;48.724;9.104;2023-11-19T09:07:24;0.20;;;0.20;;
75634;SDS011;64227;48.724;9.104;2023-11-19T09:09:49;0.73;;;0.43;;
75634;SDS011;64227;48.724;9.104;2023-11-19T09:12:14;0.22;;;0.20;;
75634;SDS011;64227;48.724;9.104;2023-11-19T09:14:39;0.20;;;0.20;;
75634;SDS011;64227;48.724;9.104;2023-11-19T09:17:06;0.30;;;0.20;;
75634;SDS011;64227;48.724;9.104;2023-11-19T09:19:32;0.65;;;0.22;;
75634;SDS011;64227;48.724;9.104;2023-11-19T09:21:57;0.30;;;0.10;;
75634;SDS011;64227;48.724;9.104;2023-11-19T09:24:23;0.30;;;0.30;;
75634;SDS011;64227;48.724;9.104;2023-11-19T09:26:48;0.20;;;0.20;;
75634;SDS011;64227;48.724;9.104;2023-11-19T09:29:13;0.70;;;0.22;;
75634;SDS011;64227;48.724;9.104;2023-11-19T09:31:39;0.28;;;0.22;;
75634;SDS011;64227;48.724;9.104;2023-11-19T09:34:04;0.30;;;0.30;;
75634;SDS011;64227;48.724;9.104;2023-11-19T09:36:30;0.30;;;0.30;;
75634;SDS011;64227;48.724;9.104;2023-11-19T09:38:56;0.47;;;0.30;;
75634;SDS011;64227;48.724;9.104;2023-11-19T09:41:21;0.40;;;0.28;;
75634;SDS011;64227;48.724;9.104;2023-11-19T09:43:46;0.20;;;0.20;;
75634;SDS011;64227;48.724;9.104;2023-11-19T09:46:15;0.15;;;0.10;;
75634;SDS011;64227;48.724;9.104;2023-11-19T09:48:41;0.20;;;0.20;;
75634;SDS011;64227;48.724;9.104;2023-11-19T09:51:08;1.58;;;0.22;;
75634;SDS011;64227;48.724;9.104;2023-11-19T09:53:34;0.28;;;0.20;;
75634;SDS011;64227;48.724;9.104;2023-11-19T09:56:01;0.10;;;0.10;;
75634;SDS011;64227;48.724;9.104;2023-11-19T09:58:30;0.75;;;0.28;;
75634;SDS011;64227;48.724;9.104;2023-11-19T10:00:56;0.63;;;0.22;;
75634;SDS011;64227;48.724;9.104;2023-11-19T10:03:24;0.28;;;0.20;;
75634;SDS011;64227;48.724;9.104;2023-11-19T10:05:49;0.20;;;0.17;;
75634;SDS011;64227;48.724;9.104;2023-11-19T10:08:15;0.22;;;0.20;;
75634;SDS011;64227;48.724;9.104;2023-11-19T10:10:41;0.20;;;0.20;;
75634;SDS011;64227;48.724;9.104;2023-11-19T10:13:06;0.20;;;0.13;;
75634;SDS011;64227;48.724;9.104;2023-11-19T10:15:35;0.30;;;0.30;;
75634;SDS011;64227;48.724;9.104;2023-11-19T10:18:02;0.30;;;0.30;;
75634;SDS011;64227;48.724;9.104;2023-11-19T10:20:29;0.25;;;0.20;;
75634;SDS011;64227;48.724;9.104;2023-11-19T10:23:00;0.68;;;0.20;;
75634;SDS011;64227;48.724;9.104;2023-11-19T10:25:26;0.30;;;0.22;;
75634;SDS011;64227;48.724;9.104;2023-11-19T10:27:53;0.20;;;0.20;;
75634;SDS011;64227;48.724;9.104;2023-11-19T10:30:22;0.30;;;0.30;;
75634;SDS011;64227;48.724;9.104;2023-11-19T10:33:05;0.30;;;0.30;;
75634;SDS011;64227;48.724;9.104;2023-11-19T10:35:31;0.88;;;0.32;;
75634;SDS011;64227;48.724;9.104;2023-11-19T10:37:58;0.57;;;0.40;;
75634;SDS011;64227;48.724;9.104;2023-11-19T10:40:36;1.02;;;0.30;;
75634;SDS011;64227;48.724;9.104;2023-11-19T10:43:03;0.40;;;0.35;;
75634;SDS011;64227;48.724;9.104;2023-11-19T10:45:28;0.25;;;0.25;;
75634;SDS011;64227;48.724;9.104;2023-11-19T10:47:54;0.45;;;0.20;;
75634;SDS011;64227;48.724;9.104;2023-11-19T10:50:19;0.73;;;0.30;;
75634;SDS011;64227;48.724;9.104;2023-11-19T10:55:55;0.10;;;0.10;;
75634;SDS011;64227;48.724;9.104;2023-11-19T10:58:24;0.40;;;0.20;;
75634;SDS011;64227;48.724;9.104;2023-11-19T11:00:52;0.70;;;0.30;;
75634;SDS011;64227;48.724;9.104;2023-11-19T11:03:20;0.50;;;0.30;;
75634;SDS011;64227;48.724;9.104;2023-11-19T11:05:53;0.77;;;0.60;;
75634;SDS011;64227;48.724;9.104;2023-11-19T11:08:23;0.30;;;0.30;;
75634;SDS011;64227;48.724;9.104;2023-11-19T11:10:52;0.20;;;0.20;;
75634;SDS011;64227;48.724;9.104;2023-11-19T11:13:19;0.98;;;0.38;;
75634;SDS011;64227;48.724;9.104;2023-11-19T11:15:45;0.22;;;0.20;;
75634;SDS011;64227;48.724;9.104;2023-11-19T11:18:15;0.90;;;0.40;;
75634;SDS011;64227;48.724;9.104;2023-11-19T11:24:36;0.20;;;0.20;;
75634;SDS011;64227;48.724;9.104;2023-11-19T11:35:47;0.82;;;0.30;;
75634;SDS011;64227;48.724;9.104;2023-11-19T11:38:21;0.35;;;0.10;;
75634;SDS011;64227;48.724;9.104;2023-11-19T11:43:48;0.40;;;0.30;;
75634;SDS011;64227;48.724;9.104;2023-11-19T11:49:01;1.30;;;0.32;;
75634;SDS011;64227;48.724;9.104;2023-11-19T11:54:08;0.35;;;0.30;;
75634;SDS011;64227;48.724;9.104;2023-11-19T11:56:36;0.45;;;0.20;;
75634;SDS011;64227;48.724;9.104;2023-11-19T11:59:02;2.38;;;0.40;;
75634;SDS011;64227;48.724;9.104;2023-11-19T12:01:27;1.05;;;0.40;;
75634;SDS011;64227;48.724;9.104;2023-11-19T12:03:55;1.00;;;0.20;;
75634;SDS011;64227;48.724;9.104;2023-11-19T12:06:21;0.93;;;0.30;;
75634;SDS011;64227;48.724;9.104;2023-11-19T12:08:47;0.57;;;0.30;;
75634;SDS011;64227;48.724;9.104;2023-11-19T12:11:12;0.43;;;0.38;;
75634;SDS011;64227;48.724;9.104;2023-11-19T12:13:53;1.70;;;0.28;;
75634;SDS011;64227;48.724;9.104;2023-11-19T12:16:27;0.40;;;0.40;;
75634;SDS011;64227;48.724;9.104;2023-11-19T12:18:54;0.95;;;0.20;;
75634;SDS011;64227;48.724;9.104;2023-11-19T12:21:29;0.80;;;0.20;;
75634;SDS011;64227;48.724;9.104;2023-11-19T12:23:55;1.42;;;0.47;;
75634;SDS011;64227;48.724;9.104;2023-11-19T12:26:31;0.88;;;0.35;;
75634;SDS011;64227;48.724;9.104;2023-11-19T12:29:00;1.05;;;0.22;;
75634;SDS011;64227;48.724;9.104;2023-11-19T12:31:28;0.30;;;0.20;;
75634;SDS011;64227;48.724;9.104;2023-11-19T12:33:54;0.63;;;0.13;;
75634;SDS011;64227;48.724;9.104;2023-11-19T12:36:19;0.45;;;0.30;;
75634;SDS011;64227;48.724;9.104;2023-11-19T12:38:44;1.65;;;0.20;;
75634;SDS011;64227;48.724;9.104;2023-11-19T12:41:10;0.20;;;0.20;;
75634;SDS011;64227;48.724;9.104;2023-11-19T12:43:37;1.05;;;0.20;;
75634;SDS011;64227;48.724;9.104;2023-11-19T12:48:47;0.30;;;0.20;;
75634;SDS011;64227;48.724;9.104;2023-11-19T12:51:13;0.52;;;0.30;;
75634;SDS011;64227;48.724;9.104;2023-11-19T12:53:51;1.90;;;0.60;;
75634;SDS011;64227;48.724;9.104;2023-11-19T12:56:19;2.10;;;0.63;;
75634;SDS011;64227;48.724;9.104;2023-11-19T12:58:45;1.20;;;0.30;;
75634;SDS011;64227;48.724;9.104;2023-11-19T13:01:15;2.22;;;0.30;;
75634;SDS011;64227;48.724;9.104;2023-11-19T13:03:41;0.80;;;0.32;;
75634;SDS011;64227;48.724;9.104;2023-11-19T13:06:07;0.95;;;0.50;;
75634;SDS011;64227;48.724;9.104;2023-11-19T13:08:37;0.38;;;0.22;;
75634;SDS011;64227;48.724;9.104;2023-11-19T13:11:03;0.60;;;0.20;;
75634;SDS011;64227;48.724;9.104;2023-11-19T13:13:29;1.20;;;0.20;;
75634;SDS011;64227;48.724;9.104;2023-11-19T13:16:01;1.23;;;0.25;;
75634;SDS011;64227;48.724;9.104;2023-11-19T13:18:27;1.60;;;0.60;;
75634;SDS011;64227;48.724;9.104;2023-11-19T13:20:53;0.50;;;0.30;;
75634;SDS011;64227;48.724;9.104;2023-11-19T13:23:18;0.60;;;0.30;;
75634;SDS011;64227;48.724;9.104;2023-11-19T13:25:44;0.35;;;0.22;;
75634;SDS011;64227;48.724;9.104;2023-11-19T13:28:10;0.30;;;0.20;;
75634;SDS011;64227;48.724;9.104;2023-11-19T13:30:35;0.30;;;0.28;;
75634;SDS011;64227;48.724;9.104;2023-11-19T13:33:01;1.35;;;0.20;;
75634;SDS011;64227;48.724;9.104;2023-11-19T13:35:27;0.30;;;0.20;;
75634;SDS011;64227;48.724;9.104;2023-11-19T13:37:52;0.95;;;0.60;;
75634;SDS011;64227;48.724;9.104;2023-11-19T13:40:20;1.25;;;0.40;;
75634;SDS011;64227;48.724;9.104;2023-11-19T13:42:47;1.80;;;0.22;;
75634;SDS011;64227;48.724;9.104;2023-11-19T13:45:13;0.40;;;0.20;;
75634;SDS011;64227;48.724;9.104;2023-11-19T13:47:41;0.47;;;0.20;;
75634;SDS011;64227;48.724;9.104;2023-11-19T13:50:11;1.48;;;0.20;;
75634;SDS011;64227;48.724;9.104;2023-11-19T13:52:37;2.65;;;0.30;;
75634;SDS011;64227;48.724;9.104;2023-11-19T13:55:07;0.43;;;0.30;;
75634;SDS011;64227;48.724;9.104;2023-11-19T13:57:34;0.85;;;0.10;;
75634;SDS011;64227;48.724;9.104;2023-11-19T14:00:00;0.50;;;0.30;;
75634;SDS011;64227;48.724;9.104;2023-11-19T14:02:28;1.30;;;0.30;;
75634;SDS011;64227;48.724;9.104;2023-11-19T14:04:53;0.50;;;0.32;;
75634;SDS011;64227;48.724;9.104;2023-11-19T14:07:18;0.47;;;0.30;;
75634;SDS011;64227;48.724;9.104;2023-11-19T14:09:44;0.98;;;0.30;;
75634;SDS011;64227;48.724;9.104;2023-11-19T14:12:10;0.20;;;0.20;;
75634;SDS011;64227;48.724;9.104;2023-11-19T14:14:37;1.67;;;0.30;;
75634;SDS011;64227;48.724;9.104;2023-11-19T14:17:04;0.40;;;0.30;;
75634;SDS011;64227;48.724;9.104;2023-11-19T14:19:29;1.13;;;0.30;;
75634;SDS011;64227;48.724;9.104;2023-11-19T14:21:54;0.30;;;0.20;;
75634;SDS011;64227;48.724;9.104;2023-11-19T14:24:20;1.05;;;0.20;;
75634;SDS011;64227;48.724;9.104;2023-11-19T14:26:46;3.47;;;0.40;;
75634;SDS011;64227;48.724;9.104;2023-11-19T14:29:12;0.52;;;0.30;;
75634;SDS011;64227;48.724;9.104;2023-11-19T14:31:37;0.85;;;0.20;;
75634;SDS011;64227;48.724;9.104;2023-11-19T14:34:07;0.60;;;0.30;;
75634;SDS011;64227;48.724;9.104;2023-11-19T14:36:33;1.17;;;0.35;;
75634;SDS011;64227;48.724;9.104;2023-11-19T14:38:58;0.35;;;0.20;;
75634;SDS011;64227;48.724;9.104;2023-11-19T14:41:24;0.98;;;0.35;;
75634;SDS011;64227;48.724;9.104;2023-11-19T14:43:49;0.50;;;0.30;;
75634;SDS011;64227;48.724;9.104;2023-11-19T14:46:15;0.90;;;0.30;;
75634;SDS011;64227;48.724;9.104;2023-11-19T14:48:40;1.60;;;0.40;;
75634;SDS011;64227;48.724;9.104;2023-11-19T14:51:05;0.30;;;0.30;;
75634;SDS011;64227;48.724;9.104;2023-11-19T14:53:31;0.80;;;0.40;;
75634;SDS011;64227;48.724;9.104;2023-11-19T14:55:56;1.73;;;0.32;;
75634;SDS011;64227;48.724;9.104;2023-11-19T14:58:21;1.42;;;0.40;;
75634;SDS011;64227;48.724;9.104;2023-11-19T15:00:46;1.05;;;0.40;;
75634;SDS011;64227;48.724;9.104;2023-11-19T15:03:12;0.95;;;0.20;;
75634;SDS011;64227;48.724;9.104;2023-11-19T15:05:38;2.92;;;0.40;;
75634;SDS011;64227;48.724;9.104;2023-11-19T15:08:04;1.60;;;0.40;;
75634;SDS011;64227;48.724;9.104;2023-11-19T15:10:29;1.38;;;0.28;;
75634;SDS011;64227;48.724;9.104;2023-11-19T15:12:54;0.73;;;0.30;;
75634;SDS011;64227;48.724;9.104;2023-11-19T15:15:20;1.25;;;0.40;;